Time;durP1;ratioP1;P1;durP2;ratioP2;P2;SDS_P1;SDS_P2;PMS_P1;PMS_P2;Temp;Humidity;BMP_temperature;BMP_pressure;BME280_temperature;BME280_humidity;BME280_pressure;Samples;Min_cycle;Max_cycle;Signal;HPM_P1;HPM_P2
2022/12/08 00:01:19;;;;;;;16.38;15.38;;;;;;;6.60;67.01;101050.75;5012546;28;20048;-69
2022/12/08 00:03:46;;;;;;;17.15;15.73;;;;;;;6.60;67.16;101048.91;5013427;28;20080;-68
2022/12/08 00:09:32;;;;;;;15.15;14.05;;;;;;;6.59;66.82;101046.44;5013355;28;20064;-69
2022/12/08 00:12:24;;;;;;;15.57;14.60;;;;;;;6.58;67.02;101037.56;5000747;28;20088;-69
2022/12/08 00:14:50;;;;;;;17.40;15.95;;;;;;;6.59;67.11;101036.50;5000180;28;20125;-68
2022/12/08 00:17:16;;;;;;;16.30;15.07;;;;;;;6.59;67.14;101022.28;5013602;28;20113;-67
2022/12/08 00:19:42;;;;;;;17.05;15.75;;;;;;;6.58;66.61;101015.25;5012898;28;20041;-67
2022/12/08 00:22:09;;;;;;;17.05;15.75;;;;;;;6.58;66.86;101010.72;5008462;28;20022;-68
2022/12/08 00:24:39;;;;;;;14.05;12.95;;;;;;;6.58;66.92;101002.66;5001839;28;20030;-73
2022/12/08 00:27:09;;;;;;;17.13;15.75;;;;;;;6.58;66.96;101001.84;5012203;28;20021;-69
2022/12/08 00:29:35;;;;;;;17.80;16.25;;;;;;;6.58;66.93;100996.47;5011355;28;20402;-73
2022/12/08 00:32:00;;;;;;;16.65;15.40;;;;;;;6.58;66.91;101001.84;5010864;28;20036;-67
2022/12/08 00:34:25;;;;;;;16.85;15.82;;;;;;;6.58;66.93;100999.16;5008187;28;20136;-68
2022/12/08 00:36:51;;;;;;;14.68;13.65;;;;;;;6.57;66.91;100995.63;5015423;28;20078;-67
2022/12/08 00:39:17;;;;;;;15.52;14.43;;;;;;;6.57;66.91;100989.44;5013091;28;20054;-68
2022/12/08 00:44:26;;;;;;;15.07;13.63;;;;;;;6.56;66.86;100991.31;5012462;28;20041;-69
2022/12/08 00:46:51;;;;;;;17.48;16.05;;;;;;;6.56;66.98;100987.81;5012785;28;20038;-69
2022/12/08 00:49:18;;;;;;;16.20;14.98;;;;;;;6.56;67.03;100993.16;5011165;28;20088;-69
2022/12/08 00:51:43;;;;;;;16.38;15.18;;;;;;;6.57;67.02;100997.50;5010906;28;20046;-68
2022/12/08 00:54:09;;;;;;;17.02;15.82;;;;;;;6.57;66.74;100998.31;5012064;28;20042;-69
2022/12/08 00:56:36;;;;;;;15.82;14.73;;;;;;;6.56;66.75;100988.63;5014609;28;20116;-67
2022/12/08 00:59:04;;;;;;;16.08;14.88;;;;;;;6.56;67.00;100980.56;5012543;28;20030;-67
2022/12/08 01:01:29;;;;;;;15.70;14.63;;;;;;;6.57;66.93;100984.06;5011818;28;20497;-68
2022/12/08 01:03:55;;;;;;;16.50;15.30;;;;;;;6.56;66.96;100979.75;5005496;28;20069;-67
2022/12/08 01:06:20;;;;;;;15.73;14.82;;;;;;;6.55;66.73;100972.72;5007777;28;20037;-68
2022/12/08 01:08:45;;;;;;;15.32;14.30;;;;;;;6.55;67.24;100978.09;5012124;28;20450;-68
2022/12/08 01:11:14;;;;;;;15.80;14.23;;;;;;;6.55;66.86;100975.41;5010461;28;20539;-68
2022/12/08 01:13:40;;;;;;;17.08;15.85;;;;;;;6.55;67.02;100973.56;5010559;28;20113;-72
2022/12/08 01:16:06;;;;;;;14.15;13.30;;;;;;;6.56;66.95;100969.84;5019315;28;20141;-68
2022/12/08 01:18:32;;;;;;;15.15;14.15;;;;;;;6.56;66.97;100971.69;5012359;28;20038;-68
2022/12/08 01:21:03;;;;;;;16.48;15.20;;;;;;;6.55;66.80;100968.19;5009505;28;20034;-69
2022/12/08 01:23:28;;;;;;;15.23;14.27;;;;;;;6.55;66.86;100970.03;5011739;28;20022;-69
2022/12/08 01:25:54;;;;;;;15.43;14.32;;;;;;;6.55;67.10;100964.66;5010024;28;20045;-69
2022/12/08 01:28:19;;;;;;;15.68;14.75;;;;;;;6.55;66.88;100965.50;4994508;28;20477;-68
2022/12/08 01:30:45;;;;;;;15.00;14.07;;;;;;;6.55;66.70;100968.19;5020034;28;20073;-67
2022/12/08 01:33:10;;;;;;;14.07;13.27;;;;;;;6.54;67.10;100969.22;5011059;28;20038;-71
2022/12/08 01:35:35;;;;;;;14.95;14.05;;;;;;;6.54;66.92;100968.41;5011542;28;20088;-67
2022/12/08 01:38:01;;;;;;;14.88;13.68;;;;;;;6.54;67.03;100963.84;5012137;28;20405;-67
2022/12/08 01:40:26;;;;;;;15.18;14.20;;;;;;;6.55;66.78;100961.97;5011607;28;20056;-67
2022/12/08 01:42:51;;;;;;;16.30;15.18;;;;;;;6.54;66.80;100958.47;5010257;28;20053;-68
2022/12/08 01:45:27;;;;;;;14.68;13.70;;;;;;;6.54;66.97;100954.97;5009106;28;20025;-66
2022/12/08 01:47:58;;;;;;;17.73;16.35;;;;;;;6.53;66.87;100956.84;5000648;28;20037;-69
2022/12/08 01:50:25;;;;;;;14.00;13.30;;;;;;;6.52;66.80;100952.50;5012243;28;20112;-69
2022/12/08 01:52:56;;;;;;;15.88;14.80;;;;;;;6.52;66.58;100957.03;5011542;28;20049;-68
2022/12/08 01:55:21;;;;;;;15.68;14.57;;;;;;;6.52;66.96;100954.34;5008445;28;20038;-70
2022/12/08 01:57:50;;;;;;;16.25;15.07;;;;;;;6.52;66.79;100960.53;5011307;28;20028;-70
2022/12/08 02:00:19;;;;;;;14.20;13.40;;;;;;;6.50;66.68;100963.47;5011297;28;20053;-69
2022/12/08 02:02:58;;;;;;;15.15;14.25;;;;;;;6.50;66.78;100952.72;5011566;28;20060;-71
2022/12/08 02:05:30;;;;;;;13.65;12.85;;;;;;;6.51;66.63;100945.50;5010612;28;20072;-68
2022/12/08 02:07:56;;;;;;;15.20;14.10;;;;;;;6.49;66.68;100943.00;5005422;28;20149;-67
2022/12/08 02:10:26;;;;;;;15.48;14.48;;;;;;;6.49;66.97;100939.50;5011457;28;20034;-69
2022/12/08 02:12:52;;;;;;;;;;;;;;;6.49;67.06;100936.81;5026528;28;20489;-68
2022/12/08 02:15:17;;;;;;;14.32;13.13;;;;;;;6.49;67.02;100936.81;5011262;28;19921;-67
2022/12/08 02:18:00;;;;;;;14.52;13.65;;;;;;;6.47;66.81;100937.03;5009992;28;20034;-68
2022/12/08 02:20:37;;;;;;;14.85;13.95;;;;;;;6.46;67.03;100935.38;5010282;28;20041;-68
2022/12/08 02:23:19;;;;;;;16.13;14.93;;;;;;;6.45;67.06;100928.38;4998579;28;20033;-70
2022/12/08 02:25:54;;;;;;;12.18;11.55;;;;;;;6.47;67.05;100928.16;5011770;28;20095;-68
2022/12/08 02:28:47;;;;;;;15.95;14.95;;;;;;;6.46;67.07;100929.19;5009361;28;20572;-69
2022/12/08 02:31:51;;;;;;;14.23;13.43;;;;;;;6.45;66.76;100928.38;5008596;28;20379;-68
2022/12/08 02:34:29;;;;;;;13.75;13.05;;;;;;;6.44;66.81;100918.66;5020143;28;20030;-67
2022/12/08 02:37:26;;;;;;;17.63;16.55;;;;;;;6.44;67.02;100921.34;5009213;28;20602;-67
2022/12/08 02:40:01;;;;;;;16.38;15.35;;;;;;;6.44;66.99;100918.66;5006323;28;20042;-68
2022/12/08 02:42:43;;;;;;;14.40;13.50;;;;;;;6.44;67.16;100913.28;5006860;28;20500;-70
2022/12/08 02:45:15;;;;;;;13.63;12.73;;;;;;;6.44;66.95;100910.63;5025500;28;20033;-67
2022/12/08 02:47:42;;;;;;;13.57;12.77;;;;;;;6.44;66.77;100913.28;5010247;28;20030;-67
2022/12/08 02:50:08;;;;;;;16.15;15.02;;;;;;;6.44;67.07;100901.75;5023141;28;20103;-69
2022/12/08 02:52:33;;;;;;;15.50;14.48;;;;;;;6.45;66.82;100903.38;5013662;28;20040;-69
2022/12/08 02:55:04;;;;;;;15.68;14.57;;;;;;;6.45;66.71;100898.00;5011341;28;20381;-69
2022/12/08 02:57:54;;;;;;;15.05;14.05;;;;;;;6.45;67.02;100898.00;5014503;28;20025;-68
2022/12/08 03:00:21;;;;;;;15.02;14.13;;;;;;;6.44;67.10;100889.16;5011512;28;20761;-67
2022/12/08 03:02:59;;;;;;;14.30;13.35;;;;;;;6.44;67.03;100899.88;5015487;28;20057;-68
2022/12/08 03:05:49;;;;;;;13.43;12.48;;;;;;;6.44;67.28;100886.47;5015354;28;20037;-68
2022/12/08 03:08:38;;;;;;;13.75;12.90;;;;;;;6.43;66.93;100878.66;5013383;28;20060;-69
2022/12/08 03:11:12;;;;;;;17.92;16.58;;;;;;;6.43;66.70;100886.69;5015226;28;20482;-69
2022/12/08 03:13:45;;;;;;;15.52;14.32;;;;;;;6.43;66.81;100879.47;5013524;28;20061;-68
2022/12/08 03:16:15;;;;;;;15.23;14.18;;;;;;;6.43;66.85;100882.16;5014522;28;20032;-67
2022/12/08 03:18:46;;;;;;;15.48;14.55;;;;;;;6.43;67.00;100882.16;5013728;28;20029;-68
2022/12/08 03:21:15;;;;;;;15.85;14.68;;;;;;;6.43;67.10;100881.31;5016475;28;20025;-68
2022/12/08 03:23:45;;;;;;;14.98;13.98;;;;;;;6.43;67.07;100873.28;5019528;28;20091;-67
2022/12/08 03:26:17;;;;;;;17.77;16.42;;;;;;;6.45;67.05;100881.91;5013072;28;20710;-69
2022/12/08 03:28:43;;;;;;;19.83;18.05;;;;;;;6.44;67.08;100869.53;5012922;28;20060;-69
2022/12/08 03:31:12;;;;;;;19.60;18.02;;;;;;;6.45;66.59;100863.13;5003257;28;20501;-68
2022/12/08 03:33:42;;;;;;;16.17;15.18;;;;;;;6.44;67.01;100872.22;5014072;28;20382;-70
2022/12/08 03:36:10;;;;;;;20.25;18.45;;;;;;;6.44;67.13;100862.31;5014127;28;20038;-67
2022/12/08 03:38:43;;;;;;;16.67;15.55;;;;;;;6.46;66.79;100862.13;5013531;28;20029;-68
2022/12/08 03:41:18;;;;;;;17.17;15.88;;;;;;;6.44;67.03;100862.31;5003957;28;20026;-68
2022/12/08 03:43:54;;;;;;;16.45;15.25;;;;;;;6.45;67.07;100858.63;5014619;28;20486;-70
2022/12/08 03:46:22;;;;;;;14.60;13.60;;;;;;;6.44;66.92;100851.59;5010922;28;20034;-69
2022/12/08 03:48:48;;;;;;;16.77;15.43;;;;;;;6.43;66.74;100841.91;5014067;28;20485;-68
2022/12/08 03:51:14;;;;;;;19.88;17.85;;;;;;;6.44;66.99;100845.41;5012884;28;20114;-67
2022/12/08 03:53:40;;;;;;;16.90;15.65;;;;;;;6.44;67.10;100840.84;5023529;28;20040;-68
2022/12/08 03:56:23;;;;;;;16.30;15.20;;;;;;;6.43;67.05;100847.25;5013106;28;20037;-70
2022/12/08 03:58:49;;;;;;;14.60;13.70;;;;;;;6.43;67.18;100839.22;5013495;28;20030;-68
2022/12/08 04:01:15;;;;;;;17.27;15.98;;;;;;;6.43;67.17;100830.34;5012128;28;20046;-68
2022/12/08 04:03:40;;;;;;;15.02;14.05;;;;;;;6.43;67.12;100830.34;5014617;28;20049;-68
2022/12/08 04:06:06;;;;;;;17.70;16.42;;;;;;;6.43;67.15;100819.63;5009178;28;20396;-68
2022/12/08 04:08:31;;;;;;;16.90;15.68;;;;;;;6.42;67.19;100824.13;5008640;28;20053;-69
2022/12/08 04:10:57;;;;;;;13.85;13.00;;;;;;;6.44;67.01;100823.94;5017792;28;20168;-72
2022/12/08 04:13:22;;;;;;;13.85;13.07;;;;;;;6.43;67.12;100820.44;5013424;28;20108;-67
2022/12/08 04:15:48;;;;;;;15.82;15.02;;;;;;;6.44;67.01;100810.50;5027888;28;20030;-68
2022/12/08 04:18:14;;;;;;;16.05;15.05;;;;;;;6.43;67.01;100804.34;5012973;28;20049;-69
2022/12/08 04:20:44;;;;;;;14.65;13.77;;;;;;;6.43;66.92;100803.50;5012155;28;20041;-67
2022/12/08 04:23:10;;;;;;;14.30;13.40;;;;;;;6.43;66.95;100798.97;4996430;28;20479;-67
2022/12/08 04:25:36;;;;;;;15.65;14.55;;;;;;;6.43;67.12;100801.66;5005233;28;20105;-68
2022/12/08 04:28:02;;;;;;;15.48;14.50;;;;;;;6.43;67.09;100804.34;5013098;28;20069;-71
2022/12/08 04:30:28;;;;;;;14.15;13.35;;;;;;;6.44;66.86;100810.50;5011922;28;20112;-68
2022/12/08 04:32:53;;;;;;;16.08;14.82;;;;;;;6.43;67.07;100823.13;4995776;28;20117;-68
2022/12/08 04:35:18;;;;;;;14.60;13.68;;;;;;;6.43;67.08;100823.13;4999327;28;20363;-69
2022/12/08 04:37:44;;;;;;;13.45;12.65;;;;;;;6.43;66.99;100819.63;5011496;28;20045;-70
2022/12/08 04:40:11;;;;;;;16.40;15.27;;;;;;;6.43;67.10;100822.28;5011793;28;20057;-67
2022/12/08 04:42:36;;;;;;;13.07;12.38;;;;;;;6.42;66.79;100810.72;5013516;28;20045;-68
2022/12/08 04:45:02;;;;;;;14.25;13.23;;;;;;;6.43;66.92;100811.56;5013098;28;20385;-74
2022/12/08 04:47:28;;;;;;;13.13;12.43;;;;;;;6.42;66.98;100807.22;5012520;28;20041;-70
2022/12/08 04:49:53;;;;;;;14.70;13.80;;;;;;;6.42;66.97;100809.91;5011745;28;20041;-68
2022/12/08 04:52:19;;;;;;;15.60;14.38;;;;;;;6.41;66.96;100806.41;5012919;28;20125;-68
2022/12/08 04:54:44;;;;;;;14.23;13.43;;;;;;;6.41;67.29;100795.66;5013354;28;20042;-68
2022/12/08 04:57:09;;;;;;;14.98;14.00;;;;;;;6.41;66.89;100801.03;5012451;28;20036;-70
2022/12/08 04:59:35;;;;;;;14.77;13.98;;;;;;;6.41;66.94;100797.53;5010237;28;20542;-68
2022/12/08 05:02:00;;;;;;;16.48;15.38;;;;;;;6.41;67.20;100779.56;5014520;28;20508;-70
2022/12/08 05:04:25;;;;;;;14.20;13.40;;;;;;;6.41;66.89;100789.47;4997583;28;20125;-68
2022/12/08 05:06:51;;;;;;;14.23;13.43;;;;;;;6.41;67.11;100794.84;5003543;28;20044;-67
2022/12/08 05:09:16;;;;;;;15.00;14.07;;;;;;;6.41;66.89;100795.66;5012382;28;20137;-68
2022/12/08 05:11:41;;;;;;;13.40;12.70;;;;;;;6.41;66.95;100794.84;5010720;28;20059;-68
2022/12/08 05:14:12;;;;;;;14.93;14.07;;;;;;;6.41;67.12;100795.66;4998790;28;20498;-71
2022/12/08 05:16:38;;;;;;;15.02;14.23;;;;;;;6.41;67.19;100794.84;5010625;28;20034;-69
2022/12/08 05:19:04;;;;;;;14.50;13.70;;;;;;;6.40;67.07;100783.31;5010990;28;20080;-69
2022/12/08 05:21:29;;;;;;;15.35;14.55;;;;;;;6.40;67.22;100780.63;5010904;28;20490;-68
2022/12/08 05:23:54;;;;;;;14.35;13.40;;;;;;;6.41;66.87;100784.13;5010579;28;20034;-68
2022/12/08 05:26:20;;;;;;;14.93;13.93;;;;;;;6.41;67.11;100784.94;5012076;28;20026;-68
2022/12/08 05:28:45;;;;;;;14.70;13.80;;;;;;;6.41;67.12;100784.13;5011463;28;20387;-73
2022/12/08 05:31:12;;;;;;;14.48;13.60;;;;;;;6.41;66.84;100779.56;5012079;28;20045;-67
2022/12/08 05:33:37;;;;;;;13.55;12.75;;;;;;;6.42;67.18;100777.69;5008952;28;20033;-68
2022/12/08 05:36:03;;;;;;;14.40;13.50;;;;;;;6.41;67.01;100768.84;5004263;28;20031;-68
2022/12/08 05:38:28;;;;;;;15.07;14.18;;;;;;;6.40;66.79;100769.88;5001615;28;20057;-67
2022/12/08 05:40:53;;;;;;;14.98;13.98;;;;;;;6.42;67.06;100761.59;5012057;28;20030;-69
2022/12/08 05:43:19;;;;;;;16.02;14.82;;;;;;;6.42;66.85;100766.97;5012138;28;20045;-68
2022/12/08 05:45:44;;;;;;;14.45;13.65;;;;;;;6.42;66.76;100765.09;5008846;28;20034;-69
2022/12/08 05:48:10;;;;;;;14.73;13.88;;;;;;;6.42;67.03;100767.78;5011576;28;20394;-68
2022/12/08 05:50:35;;;;;;;14.55;13.75;;;;;;;6.42;67.11;100762.41;5012121;28;20034;-69
2022/12/08 05:53:00;;;;;;;14.68;13.68;;;;;;;6.43;66.94;100760.59;5011718;28;20486;-69
2022/12/08 05:55:26;;;;;;;15.50;14.50;;;;;;;6.42;66.89;100757.06;5015545;28;20465;-70
2022/12/08 05:57:51;;;;;;;13.95;13.07;;;;;;;6.43;67.16;100768.63;5015360;28;20381;-69
2022/12/08 06:00:17;;;;;;;16.40;15.35;;;;;;;6.42;66.72;100765.09;5011062;28;20088;-67
2022/12/08 06:02:42;;;;;;;13.32;12.63;;;;;;;6.42;66.92;100754.38;5011750;28;20037;-69
2022/12/08 06:05:11;;;;;;;13.65;12.85;;;;;;;6.43;67.03;100752.53;5011174;28;20030;-68
2022/12/08 06:07:36;;;;;;;14.25;13.45;;;;;;;6.43;66.99;100749.84;5017802;28;20061;-70
2022/12/08 06:10:03;;;;;;;15.05;14.05;;;;;;;6.41;66.91;100750.06;5011730;28;20030;-70
2022/12/08 06:12:28;;;;;;;16.38;15.15;;;;;;;6.41;67.04;100752.75;5011213;28;20030;-68
2022/12/08 06:14:53;;;;;;;16.20;14.85;;;;;;;6.41;66.84;100754.59;5009433;28;20048;-68
2022/12/08 06:17:19;;;;;;;17.25;16.15;;;;;;;6.41;66.79;100749.25;5011395;28;20397;-69
2022/12/08 06:19:44;;;;;;;15.00;13.82;;;;;;;6.39;66.73;100749.44;5010454;28;20052;-70
2022/12/08 06:22:09;;;;;;;13.93;13.02;;;;;;;6.41;67.01;100758.09;5011814;28;20026;-70
2022/12/08 06:24:35;;;;;;;14.20;13.10;;;;;;;6.41;66.95;100760.78;5010042;28;20470;-68
2022/12/08 06:27:00;;;;;;;14.60;13.70;;;;;;;6.41;66.88;100758.09;5011423;28;20061;-71
2022/12/08 06:29:25;;;;;;;17.05;15.63;;;;;;;6.41;66.77;100762.66;5009880;28;20030;-69
2022/12/08 06:31:51;;;;;;;14.40;13.60;;;;;;;6.41;66.70;100758.09;5009223;28;20060;-70
2022/12/08 06:34:17;;;;;;;14.80;13.93;;;;;;;6.41;66.89;100763.47;5010843;28;20040;-69
2022/12/08 06:36:42;;;;;;;14.23;13.35;;;;;;;6.42;66.68;100758.91;5011717;28;20040;-69
2022/12/08 06:39:09;;;;;;;14.20;13.40;;;;;;;6.41;67.14;100755.41;5002150;28;20494;-68
2022/12/08 06:42:42;;;;;;;14.10;13.18;;;;;;;6.42;67.05;100759.72;5008878;28;20041;-69
2022/12/08 06:44:20;;;;;;;15.68;14.57;;;;;;;6.42;66.81;100753.56;5010657;28;20547;-69
2022/12/08 06:46:45;;;;;;;14.38;13.48;;;;;;;6.42;66.85;100758.91;5010387;28;20042;-69
2022/12/08 06:49:10;;;;;;;14.70;13.70;;;;;;;6.43;66.70;100760.59;5016331;28;20458;-68
2022/12/08 06:51:36;;;;;;;14.13;13.43;;;;;;;6.42;67.13;100766.97;5010448;28;20030;-68
2022/12/08 06:54:01;;;;;;;15.85;14.85;;;;;;;6.41;67.04;100758.09;5011301;28;20049;-70
2022/12/08 06:56:26;;;;;;;17.35;15.93;;;;;;;6.40;67.01;100764.53;5023707;28;20429;-71
2022/12/08 06:58:52;;;;;;;15.90;14.90;;;;;;;6.41;66.97;100766.16;5010937;28;20050;-70
2022/12/08 07:01:17;;;;;;;14.80;13.77;;;;;;;6.41;66.86;100755.41;5009774;28;20030;-73
2022/12/08 07:03:43;;;;;;;14.32;13.50;;;;;;;6.42;66.93;100758.91;5009074;28;20037;-78
2022/12/08 07:06:14;;;;;;;14.50;13.50;;;;;;;6.43;67.08;100760.59;5011104;28;20030;-68
2022/12/08 07:08:40;;;;;;;14.82;13.93;;;;;;;6.43;67.16;100761.41;5013131;28;20053;-68
2022/12/08 07:11:10;;;;;;;16.48;15.27;;;;;;;6.44;66.90;100760.34;5008993;28;20038;-71
2022/12/08 07:13:36;;;;;;;17.45;15.95;;;;;;;6.44;66.92;100760.34;5009158;28;20038;-69
2022/12/08 07:16:05;;;;;;;14.68;13.70;;;;;;;6.45;67.17;100762.00;5011194;28;20042;-69
2022/12/08 07:18:30;;;;;;;15.68;14.57;;;;;;;6.45;67.02;100769.22;5013776;28;20029;-69
2022/12/08 07:20:55;;;;;;;15.32;14.27;;;;;;;6.45;66.82;100766.53;5020230;28;20038;-69
2022/12/08 07:23:21;;;;;;;18.80;17.42;;;;;;;6.45;67.01;100769.22;5008388;28;20041;-69
2022/12/08 07:25:46;;;;;;;14.38;13.50;;;;;;;6.44;67.18;100778.31;5008157;28;20034;-67
2022/12/08 07:28:11;;;;;;;16.60;15.50;;;;;;;6.44;67.24;100773.75;5008400;28;20049;-66
2022/12/08 07:30:37;;;;;;;18.08;16.70;;;;;;;6.43;66.85;100769.44;5017778;28;20036;-68
2022/12/08 07:33:04;;;;;;;16.83;15.48;;;;;;;6.44;67.04;100764.91;5010331;28;20030;-68
2022/12/08 07:35:30;;;;;;;17.30;15.48;;;;;;;6.44;67.07;100770.25;5008243;28;20038;-68
2022/12/08 07:37:56;;;;;;;18.50;17.17;;;;;;;6.43;67.18;100774.81;5009249;28;20056;-68
2022/12/08 07:40:22;;;;;;;16.23;15.02;;;;;;;6.44;66.98;100772.94;5000802;28;20048;-67
2022/12/08 07:42:47;;;;;;;16.30;15.27;;;;;;;6.44;67.18;100770.25;5013690;28;20026;-68
2022/12/08 07:45:12;;;;;;;15.80;14.60;;;;;;;6.43;67.09;100766.75;5014432;28;20398;-70
2022/12/08 07:47:38;;;;;;;16.58;15.38;;;;;;;6.43;67.19;100766.75;5012129;28;20116;-70
2022/12/08 07:50:04;;;;;;;16.90;15.48;;;;;;;6.44;66.99;100767.59;5013036;28;20045;-69
2022/12/08 07:52:29;;;;;;;17.20;15.77;;;;;;;6.44;67.08;100770.25;5014535;28;20026;-68
2022/12/08 07:54:54;;;;;;;16.13;14.70;;;;;;;6.45;67.21;100771.91;5014253;28;20034;-70
2022/12/08 07:57:19;;;;;;;17.42;15.88;;;;;;;6.43;67.11;100771.31;5011462;28;20052;-68
2022/12/08 07:59:45;;;;;;;17.02;15.40;;;;;;;6.42;67.17;100772.34;5011255;28;20030;-69
2022/12/08 08:02:15;;;;;;;15.27;14.02;;;;;;;6.42;67.17;100770.47;5004107;28;20046;-70
2022/12/08 08:04:40;;;;;;;14.90;13.90;;;;;;;6.41;67.01;100776.88;5012023;28;20041;-69
2022/12/08 08:07:05;;;;;;;15.30;14.30;;;;;;;6.41;66.97;100770.69;5012782;28;20034;-69
2022/12/08 08:09:31;;;;;;;15.95;14.85;;;;;;;6.41;67.00;100768.84;5012431;28;20046;-69
2022/12/08 08:11:56;;;;;;;15.15;14.25;;;;;;;6.41;66.93;100768.84;5015150;28;20121;-71
2022/12/08 08:14:22;;;;;;;14.35;13.50;;;;;;;6.41;66.85;100771.53;5014077;28;20524;-69
2022/12/08 08:16:47;;;;;;;14.25;13.35;;;;;;;6.41;67.03;100778.75;5012259;28;20096;-68
2022/12/08 08:19:12;;;;;;;13.45;12.73;;;;;;;6.41;67.12;100782.25;5013623;28;20060;-69
2022/12/08 08:21:38;;;;;;;18.20;16.48;;;;;;;6.40;67.10;100775.25;5007146;28;20038;-68
2022/12/08 08:24:03;;;;;;;14.90;14.00;;;;;;;6.41;67.17;100776.88;5012149;28;20096;-68
2022/12/08 08:26:28;;;;;;;17.85;15.98;;;;;;;6.40;67.10;100775.25;4999811;28;20517;-67
2022/12/08 08:28:54;;;;;;;15.07;14.18;;;;;;;6.40;67.39;100783.31;5013586;28;20037;-68
2022/12/08 08:31:23;;;;;;;15.40;14.52;;;;;;;6.39;67.12;100773.59;5010142;28;20038;-69
2022/12/08 08:33:49;;;;;;;14.50;13.70;;;;;;;6.38;67.25;100774.63;5009722;28;20490;-70
2022/12/08 08:36:14;;;;;;;14.82;14.00;;;;;;;6.39;67.29;100770.09;5003157;28;20030;-68
2022/12/08 08:38:41;;;;;;;16.17;15.13;;;;;;;6.38;67.04;100771.94;5012764;28;20044;-69
2022/12/08 08:41:08;;;;;;;16.63;15.35;;;;;;;6.39;67.03;100772.78;5004920;28;20145;-69
2022/12/08 08:43:35;;;;;;;16.80;15.70;;;;;;;6.38;67.08;100765.78;5003070;28;20128;-69
2022/12/08 08:46:01;;;;;;;13.35;12.60;;;;;;;6.36;67.00;100765.97;5033716;28;20068;-69
2022/12/08 08:48:29;;;;;;;15.00;14.10;;;;;;;6.35;67.00;100764.34;5012382;28;20030;-74
2022/12/08 08:50:55;;;;;;;13.70;12.90;;;;;;;6.35;66.80;100758.97;5012197;28;20026;-69
2022/12/08 08:53:21;;;;;;;14.00;13.20;;;;;;;6.35;66.89;100763.50;5010635;28;20037;-70
2022/12/08 08:55:46;;;;;;;14.52;13.63;;;;;;;6.35;67.01;100756.28;5019324;28;20033;-68
2022/12/08 08:58:12;;;;;;;18.88;13.10;;;;;;;6.35;66.95;100758.13;5012975;28;20474;-69
2022/12/08 09:00:38;;;;;;;16.08;14.98;;;;;;;6.36;67.00;100759.78;5015017;28;20033;-69
2022/12/08 09:03:03;;;;;;;13.60;12.80;;;;;;;6.35;67.08;100760.81;5009899;28;20032;-67
2022/12/08 09:05:28;;;;;;;13.45;12.60;;;;;;;6.36;67.11;100754.44;5012051;28;20030;-72
2022/12/08 09:07:54;;;;;;;16.63;15.52;;;;;;;6.35;67.21;100755.44;5012184;28;20128;-69
2022/12/08 09:10:19;;;;;;;13.23;12.40;;;;;;;6.35;67.32;100750.94;5013953;28;20053;-69
2022/12/08 09:12:45;;;;;;;16.05;14.80;;;;;;;6.35;67.18;100750.94;5009837;28;20216;-69
2022/12/08 09:15:10;;;;;;;14.15;13.25;;;;;;;6.33;67.37;100753.00;5007767;28;20038;-69
2022/12/08 09:17:35;;;;;;;15.32;14.35;;;;;;;6.35;67.21;100750.06;5011303;28;20072;-69
2022/12/08 09:20:01;;;;;;;14.05;13.15;;;;;;;6.35;67.21;100755.44;5009771;28;20036;-69
2022/12/08 09:22:27;;;;;;;15.32;14.52;;;;;;;6.34;67.09;100751.94;5005721;28;20399;-68
2022/12/08 09:24:55;;;;;;;15.70;14.63;;;;;;;6.34;67.30;100751.94;5005499;28;20161;-69
2022/12/08 09:27:20;;;;;;;13.20;12.50;;;;;;;6.35;67.44;100755.44;5010871;28;20394;-70
2022/12/08 09:29:45;;;;;;;17.58;16.35;;;;;;;6.34;67.37;100754.63;5009562;28;20038;-69
2022/12/08 09:32:11;;;;;;;14.68;13.73;;;;;;;6.34;67.38;100754.63;5010670;28;20505;-70
2022/12/08 09:34:36;;;;;;;15.80;14.73;;;;;;;6.34;67.29;100749.25;5003141;28;20511;-69
2022/12/08 09:37:02;;;;;;;13.55;12.82;;;;;;;6.35;67.26;100756.28;5004126;28;20072;-70
2022/12/08 09:39:27;;;;;;;13.73;12.93;;;;;;;6.35;67.55;100758.97;5009734;28;20037;-70
2022/12/08 09:42:01;;;;;;;17.45;15.23;;;;;;;6.36;67.58;100757.09;5007627;28;20490;-68
2022/12/08 09:44:53;;;;;;;14.13;13.27;;;;;;;6.36;67.32;100757.09;5001143;28;20022;-69
2022/12/08 09:47:28;;;;;;;14.77;13.95;;;;;;;6.35;67.26;100752.75;4998603;28;20128;-70
2022/12/08 09:50:08;;;;;;;16.58;15.38;;;;;;;6.35;67.33;100758.97;4996265;28;20506;-69
2022/12/08 09:52:45;;;;;;;13.75;12.95;;;;;;;6.36;67.23;100759.78;5000888;28;20072;-72
2022/12/08 09:55:19;;;;;;;14.38;13.48;;;;;;;6.35;67.41;100750.94;5007897;28;20065;-69
2022/12/08 09:57:53;;;;;;;15.68;14.60;;;;;;;6.36;67.29;100746.38;5007370;28;20018;-70
2022/12/08 10:00:18;;;;;;;14.82;14.02;;;;;;;6.36;67.36;100749.06;5005634;28;20110;-69
2022/12/08 10:02:46;;;;;;;16.08;14.93;;;;;;;6.36;67.36;100749.06;5008477;28;20121;-73
2022/12/08 10:05:13;;;;;;;14.23;13.38;;;;;;;6.37;67.24;100748.00;4999029;28;20034;-68
2022/12/08 10:07:47;;;;;;;15.68;14.55;;;;;;;6.36;67.68;100747.19;5000257;28;20053;-71
2022/12/08 10:10:25;;;;;;;16.15;15.05;;;;;;;6.37;67.52;100748.00;5008186;28;20037;-69
2022/12/08 10:13:07;;;;;;;17.77;15.95;;;;;;;6.37;67.26;100742.66;5007931;28;20478;-70
2022/12/08 10:15:51;;;;;;;15.40;14.40;;;;;;;6.37;67.52;100737.28;5011088;28;20068;-74
2022/12/08 10:18:25;;;;;;;15.35;14.35;;;;;;;6.38;67.68;100742.44;5009922;28;20062;-69
2022/12/08 10:20:51;;;;;;;17.77;16.17;;;;;;;6.37;67.36;100731.91;5005447;28;20034;-69
2022/12/08 10:23:32;;;;;;;15.48;14.40;;;;;;;6.38;67.42;100739.75;5008862;28;20075;-69
2022/12/08 10:26:00;;;;;;;19.40;15.00;;;;;;;6.38;67.32;100734.41;5006066;28;20096;-68
2022/12/08 10:28:26;;;;;;;14.98;14.02;;;;;;;6.37;67.43;100731.91;5008413;28;20095;-70
2022/12/08 10:30:51;;;;;;;19.65;18.23;;;;;;;6.38;67.41;100736.25;5007012;28;20490;-71
2022/12/08 10:33:19;;;;;;;16.77;15.38;;;;;;;6.38;67.40;100730.91;5009379;28;20049;-71
2022/12/08 10:35:48;;;;;;;17.95;16.50;;;;;;;6.38;67.38;100726.34;5008208;28;20529;-71
2022/12/08 10:38:29;;;;;;;13.80;13.02;;;;;;;6.39;67.40;100719.94;5008625;28;20030;-70
2022/12/08 10:41:10;;;;;;;17.52;16.08;;;;;;;6.38;67.63;100726.34;5008272;28;20022;-68
2022/12/08 10:43:47;;;;;;;17.95;16.55;;;;;;;6.38;67.56;100720.97;5010405;28;20045;-68
2022/12/08 10:46:19;;;;;;;16.42;15.15;;;;;;;6.39;67.70;100719.94;4998470;28;20481;-68
2022/12/08 10:49:08;;;;;;;18.50;16.95;;;;;;;6.39;67.65;100722.59;5005276;28;20425;-72
2022/12/08 10:51:33;;;;;;;16.23;15.23;;;;;;;6.38;67.64;100712.94;5009456;28;20038;-69
2022/12/08 10:54:00;;;;;;;17.73;16.40;;;;;;;6.39;67.53;100722.59;5011066;28;20064;-68
2022/12/08 10:56:28;;;;;;;15.23;14.23;;;;;;;6.39;67.50;100725.28;5001856;28;20085;-70
2022/12/08 10:59:13;;;;;;;14.65;13.63;;;;;;;6.41;67.63;100728.59;5010879;28;20026;-68
2022/12/08 11:01:40;;;;;;;17.35;16.10;;;;;;;6.40;67.44;100724.28;5011519;28;20030;-69
2022/12/08 11:04:41;;;;;;;15.30;14.05;;;;;;;6.41;67.54;100727.78;5011706;28;20474;-68
2022/12/08 11:07:10;;;;;;;15.52;14.63;;;;;;;6.39;67.41;100719.94;4999642;28;20034;-71
2022/12/08 11:09:45;;;;;;;;;;;;;;;6.39;67.39;100719.09;5006365;28;20058;-68
2022/12/08 11:12:15;;;;;;;13.15;12.45;;;;;;;6.38;67.52;100717.47;5032432;28;19967;-68
2022/12/08 11:14:41;;;;;;;14.40;13.60;;;;;;;6.38;67.54;100717.47;5006053;28;20379;-72
2022/12/08 11:17:20;;;;;;;12.32;11.63;;;;;;;6.37;67.62;100711.25;5012389;28;20091;-68
2022/12/08 11:19:58;;;;;;;14.68;13.80;;;;;;;6.37;67.32;100711.25;5013902;28;20030;-67
2022/12/08 11:22:41;;;;;;;14.10;13.20;;;;;;;6.38;67.35;100702.19;5014468;28;20091;-69
2022/12/08 11:25:06;;;;;;;14.65;13.75;;;;;;;6.38;67.49;100706.75;4994073;28;20038;-70
2022/12/08 11:27:35;;;;;;;15.38;14.38;;;;;;;6.39;67.09;100700.34;5022465;28;20045;-68
2022/12/08 11:30:03;;;;;;;17.05;15.60;;;;;;;6.40;67.67;100693.91;5012109;28;20026;-69